Time;durP1;ratioP1;P1;durP2;ratioP2;P2;SDS_P1;SDS_P2;PMS_P1;PMS_P2;Temp;Humidity;BMP_temperature;BMP_pressure;BME280_temperature;BME280_humidity;BME280_pressure;Samples;Min_cycle;Max_cycle;Signal;HPM_P1;HPM_P2
2024/01/05 00:01:42;;;;;;;167.27;119.82;;;;;;;;;;5018659;28;20428;-70
2024/01/05 00:04:08;;;;;;;188.20;135.52;;;;;;;;;;5032040;28;20401;-69
2024/01/05 00:06:37;;;;;;;184.05;133.02;;;;;;;;;;5018777;28;20177;-71
2024/01/05 00:09:04;;;;;;;177.65;128.73;;;;;;;;;;5018997;28;20095;-72
2024/01/05 00:11:29;;;;;;;188.05;134.98;;;;;;;;;;5013937;28;20025;-69
2024/01/05 00:13:55;;;;;;;183.60;129.95;;;;;;;;;;5022450;28;20029;-70
2024/01/05 00:16:23;;;;;;;164.55;119.35;;;;;;;;;;5021027;28;20105;-69
2024/01/05 00:18:49;;;;;;;176.60;124.25;;;;;;;;;;5018614;28;20033;-70
2024/01/05 00:21:19;;;;;;;178.23;125.80;;;;;;;;;;5018345;28;20022;-70
2024/01/05 00:23:45;;;;;;;178.27;127.60;;;;;;;;;;5019359;28;20037;-70
2024/01/05 00:26:11;;;;;;;171.75;124.95;;;;;;;;;;5023666;28;20025;-70
2024/01/05 00:28:37;;;;;;;173.68;125.50;;;;;;;;;;5018696;28;20026;-70
2024/01/05 00:31:03;;;;;;;176.18;121.47;;;;;;;;;;5013780;28;20029;-69
2024/01/05 00:33:29;;;;;;;158.65;112.63;;;;;;;;;;5018221;28;20483;-70
2024/01/05 00:35:56;;;;;;;169.20;122.22;;;;;;;;;;5021967;28;20033;-70
2024/01/05 00:38:21;;;;;;;147.32;106.95;;;;;;;;;;5020882;28;20035;-70
2024/01/05 00:40:47;;;;;;;162.63;115.72;;;;;;;;;;5018022;28;20029;-70
2024/01/05 00:43:13;;;;;;;157.57;114.07;;;;;;;;;;5018537;28;20084;-69
2024/01/05 00:45:39;;;;;;;165.55;115.03;;;;;;;;;;5018082;28;20491;-70
2024/01/05 00:48:05;;;;;;;161.07;111.60;;;;;;;;;;5029438;28;20017;-70
2024/01/05 00:50:31;;;;;;;143.10;104.30;;;;;;;;;;5023027;28;20026;-70
2024/01/05 00:52:57;;;;;;;159.90;111.38;;;;;;;;;;5018394;28;20083;-71
2024/01/05 00:55:24;;;;;;;145.65;101.32;;;;;;;;;;5018057;28;20336;-70
2024/01/05 00:57:50;;;;;;;148.82;102.57;;;;;;;;;;5020165;28;20041;-69
2024/01/05 01:00:16;;;;;;;147.88;103.32;;;;;;;;;;5021766;28;20025;-70
2024/01/05 01:02:42;;;;;;;151.98;102.05;;;;;;;;;;5019044;28;20037;-70
2024/01/05 01:05:08;;;;;;;111.90;79.35;;;;;;;;;;5024555;28;20475;-69
2024/01/05 01:07:34;;;;;;;139.93;96.18;;;;;;;;;;5013314;28;20438;-69
2024/01/05 01:10:00;;;;;;;144.77;102.13;;;;;;;;;;5022691;28;20046;-69
2024/01/05 01:12:27;;;;;;;131.50;93.80;;;;;;;;;;5021851;28;20027;-70
2024/01/05 01:14:53;;;;;;;132.38;93.25;;;;;;;;;;5051580;23;20026;-66
2024/01/05 01:17:19;;;;;;;129.95;89.53;;;;;;;;;;5002331;28;20041;-68
2024/01/05 01:19:45;;;;;;;121.03;83.22;;;;;;;;;;4998601;28;20023;-67
2024/01/05 01:22:11;;;;;;;116.50;82.75;;;;;;;;;;5013414;28;20080;-67
2024/01/05 01:24:37;;;;;;;121.85;88.70;;;;;;;;;;4995566;28;20042;-68
2024/01/05 01:27:03;;;;;;;120.90;87.90;;;;;;;;;;4995773;28;20029;-68
2024/01/05 01:29:29;;;;;;;122.85;87.97;;;;;;;;;;5005317;28;20018;-66
2024/01/05 01:31:55;;;;;;;121.35;85.15;;;;;;;;;;4998989;28;20026;-67
2024/01/05 01:34:21;;;;;;;120.82;85.60;;;;;;;;;;4996823;28;20147;-67
2024/01/05 01:36:47;;;;;;;118.72;84.60;;;;;;;;;;4995480;28;20026;-66
2024/01/05 01:39:13;;;;;;;118.18;81.55;;;;;;;;;;4995257;28;20146;-67
2024/01/05 01:41:41;;;;;;;113.95;81.05;;;;;;;;;;4995317;28;20027;-67
2024/01/05 01:44:07;;;;;;;114.55;83.53;;;;;;;;;;5008120;28;20029;-66
2024/01/05 01:46:36;;;;;;;119.95;83.65;;;;;;;;;;4995304;28;20023;-66
2024/01/05 01:49:02;;;;;;;121.68;84.72;;;;;;;;;;5003662;28;20030;-66
2024/01/05 01:51:31;;;;;;;112.00;80.95;;;;;;;;;;4994883;28;20507;-67
2024/01/05 01:53:57;;;;;;;112.40;79.55;;;;;;;;;;4996960;28;20109;-68
2024/01/05 01:56:23;;;;;;;105.68;72.57;;;;;;;;;;5006148;28;20050;-68
2024/01/05 01:58:49;;;;;;;110.93;78.55;;;;;;;;;;4994382;28;20025;-67
2024/01/05 02:01:16;;;;;;;115.15;77.07;;;;;;;;;;4994090;28;20038;-68
2024/01/05 02:03:42;;;;;;;109.40;76.82;;;;;;;;;;5005829;28;20026;-67
2024/01/05 02:06:08;;;;;;;105.20;73.32;;;;;;;;;;4997267;28;20018;-67
2024/01/05 02:08:34;;;;;;;101.65;72.95;;;;;;;;;;4999592;28;20084;-67
2024/01/05 02:11:00;;;;;;;110.40;72.15;;;;;;;;;;4993767;28;20051;-66
2024/01/05 02:13:26;;;;;;;98.05;69.85;;;;;;;;;;4993930;28;20065;-67
2024/01/05 02:15:52;;;;;;;101.20;71.97;;;;;;;;;;4995035;28;20034;-67
2024/01/05 02:18:18;;;;;;;100.88;69.43;;;;;;;;;;5008476;28;20029;-67
2024/01/05 02:20:44;;;;;;;92.20;64.93;;;;;;;;;;4998768;28;20030;-65
2024/01/05 02:23:15;;;;;;;97.30;68.68;;;;;;;;;;5001402;28;20046;-66
2024/01/05 02:25:41;;;;;;;100.83;70.73;;;;;;;;;;5006709;28;20072;-67
2024/01/05 02:28:07;;;;;;;104.78;71.20;;;;;;;;;;4997277;28;20331;-66
2024/01/05 02:30:33;;;;;;;103.38;66.97;;;;;;;;;;4993830;28;20046;-66
2024/01/05 02:32:59;;;;;;;89.90;63.20;;;;;;;;;;4996860;28;20028;-66
2024/01/05 02:35:25;;;;;;;91.05;63.55;;;;;;;;;;4999520;28;20046;-66
2024/01/05 02:37:51;;;;;;;89.82;60.42;;;;;;;;;;4994729;28;20043;-66
2024/01/05 02:40:17;;;;;;;87.68;63.85;;;;;;;;;;4995463;28;20025;-66
2024/01/05 02:42:43;;;;;;;88.30;62.15;;;;;;;;;;4994130;28;20117;-68
2024/01/05 02:45:09;;;;;;;84.28;56.95;;;;;;;;;;4993412;28;20028;-66
2024/01/05 02:47:35;;;;;;;81.57;57.33;;;;;;;;;;4993547;28;20495;-68
2024/01/05 02:50:01;;;;;;;101.03;59.92;;;;;;;;;;4995997;28;20030;-67
2024/01/05 02:52:27;;;;;;;81.85;55.92;;;;;;;;;;4993893;28;20396;-68
2024/01/05 02:54:53;;;;;;;78.90;54.85;;;;;;;;;;4998477;28;20030;-67
2024/01/05 02:57:19;;;;;;;82.13;58.08;;;;;;;;;;4999989;28;20031;-67
2024/01/05 02:59:45;;;;;;;77.70;55.53;;;;;;;;;;4993724;28;20505;-66
2024/01/05 03:02:12;;;;;;;84.93;59.85;;;;;;;;;;4996192;28;20021;-67
2024/01/05 03:04:42;;;;;;;80.90;52.08;;;;;;;;;;4993224;28;20027;-68
2024/01/05 03:07:08;;;;;;;74.85;51.85;;;;;;;;;;4996991;28;20042;-67
2024/01/05 03:09:34;;;;;;;75.57;50.00;;;;;;;;;;4997052;28;20340;-68
2024/01/05 03:12:00;;;;;;;71.85;50.70;;;;;;;;;;4999485;28;20045;-67
2024/01/05 03:14:26;;;;;;;80.43;54.03;;;;;;;;;;4997848;28;20067;-68
2024/01/05 03:16:51;;;;;;;78.18;52.67;;;;;;;;;;4996832;28;20038;-67
2024/01/05 03:19:17;;;;;;;74.50;48.90;;;;;;;;;;4996953;28;20037;-66
2024/01/05 03:21:43;;;;;;;76.32;49.38;;;;;;;;;;4996679;28;20463;-67
2024/01/05 03:24:10;;;;;;;80.93;50.80;;;;;;;;;;5000196;28;20026;-68
2024/01/05 03:26:36;;;;;;;69.25;49.25;;;;;;;;;;5009106;28;20014;-67
2024/01/05 03:29:02;;;;;;;66.50;44.55;;;;;;;;;;4997112;28;20092;-67
2024/01/05 03:31:28;;;;;;;70.43;48.60;;;;;;;;;;4996594;28;20522;-66
2024/01/05 03:33:54;;;;;;;73.00;47.03;;;;;;;;;;4998297;28;20026;-66
2024/01/05 03:36:20;;;;;;;68.72;46.58;;;;;;;;;;4998023;28;20106;-67
2024/01/05 03:38:46;;;;;;;66.43;46.03;;;;;;;;;;4996977;28;20109;-68
2024/01/05 03:41:13;;;;;;;76.45;47.50;;;;;;;;;;4996416;28;20113;-68
2024/01/05 03:43:39;;;;;;;57.20;42.50;;;;;;;;;;4996912;28;20085;-66
2024/01/05 03:46:09;;;;;;;65.13;43.40;;;;;;;;;;4999537;28;20022;-66
2024/01/05 03:48:35;;;;;;;60.67;40.85;;;;;;;;;;5003799;28;20024;-66
2024/01/05 03:51:02;;;;;;;58.78;41.08;;;;;;;;;;5005137;28;20113;-66
2024/01/05 03:53:28;;;;;;;62.10;42.22;;;;;;;;;;4996408;28;20030;-67
2024/01/05 03:55:54;;;;;;;68.38;41.70;;;;;;;;;;5009547;28;20026;-66
2024/01/05 03:58:20;;;;;;;60.88;43.00;;;;;;;;;;4997870;28;20029;-66
2024/01/05 04:00:46;;;;;;;59.28;41.17;;;;;;;;;;4996187;28;20472;-66
2024/01/05 04:03:12;;;;;;;59.47;41.78;;;;;;;;;;4996234;28;20030;-66
2024/01/05 04:05:38;;;;;;;55.55;40.10;;;;;;;;;;4996445;28;20099;-67
2024/01/05 04:08:04;;;;;;;53.65;37.40;;;;;;;;;;4999171;28;20022;-66
2024/01/05 04:10:30;;;;;;;49.03;35.58;;;;;;;;;;4996234;28;20022;-66
2024/01/05 04:12:56;;;;;;;51.78;37.67;;;;;;;;;;4996208;28;20027;-67
2024/01/05 04:15:22;;;;;;;54.72;38.95;;;;;;;;;;4995921;28;20049;-67
2024/01/05 04:17:48;;;;;;;48.50;33.78;;;;;;;;;;4996489;28;20026;-66
2024/01/05 04:20:14;;;;;;;55.25;36.72;;;;;;;;;;4998086;28;20444;-66
2024/01/05 04:22:40;;;;;;;49.22;35.00;;;;;;;;;;4995931;28;20030;-65
2024/01/05 04:25:07;;;;;;;54.50;37.35;;;;;;;;;;5003950;28;20440;-67
2024/01/05 04:27:33;;;;;;;49.38;35.15;;;;;;;;;;5000638;28;20026;-66
2024/01/05 04:29:59;;;;;;;56.75;37.33;;;;;;;;;;5009415;28;20383;-68
2024/01/05 04:32:25;;;;;;;51.80;34.15;;;;;;;;;;4996695;28;20018;-67
2024/01/05 04:34:51;;;;;;;52.22;34.38;;;;;;;;;;4995784;28;20027;-67
2024/01/05 04:37:17;;;;;;;49.42;34.72;;;;;;;;;;4995720;28;20487;-67
2024/01/05 04:39:43;;;;;;;43.33;29.85;;;;;;;;;;4995673;28;20045;-67
2024/01/05 04:42:11;;;;;;;45.10;31.10;;;;;;;;;;4998765;28;20029;-67
2024/01/05 04:44:37;;;;;;;44.17;31.08;;;;;;;;;;4996243;28;20030;-67
2024/01/05 04:47:03;;;;;;;42.78;30.25;;;;;;;;;;4995622;28;20432;-67
2024/01/05 04:49:31;;;;;;;53.95;32.58;;;;;;;;;;4995588;28;20519;-64
2024/01/05 04:51:58;;;;;;;46.13;32.35;;;;;;;;;;4997689;28;20511;-64
2024/01/05 04:54:24;;;;;;;51.35;33.00;;;;;;;;;;4997056;28;20029;-66
2024/01/05 04:56:50;;;;;;;48.00;32.30;;;;;;;;;;4997494;28;20403;-67
2024/01/05 04:59:16;;;;;;;47.03;30.23;;;;;;;;;;4997122;28;20029;-67
2024/01/05 05:01:42;;;;;;;45.22;30.90;;;;;;;;;;5007284;28;20026;-66
2024/01/05 05:04:08;;;;;;;39.90;27.38;;;;;;;;;;4998329;28;20026;-66
2024/01/05 05:06:34;;;;;;;47.38;31.40;;;;;;;;;;4995386;28;20018;-67
2024/01/05 05:09:00;;;;;;;40.30;27.40;;;;;;;;;;4995217;28;20492;-67
2024/01/05 05:11:26;;;;;;;40.05;26.83;;;;;;;;;;4994985;28;20114;-67
2024/01/05 05:13:52;;;;;;;42.35;29.13;;;;;;;;;;4996331;28;20476;-67
2024/01/05 05:16:18;;;;;;;44.67;29.73;;;;;;;;;;4996502;28;20041;-66
2024/01/05 05:18:45;;;;;;;40.80;27.73;;;;;;;;;;4995201;28;20030;-65
2024/01/05 05:21:11;;;;;;;41.78;28.58;;;;;;;;;;4994730;28;20550;-65
2024/01/05 05:23:37;;;;;;;39.15;26.52;;;;;;;;;;4994975;28;20026;-66
2024/01/05 05:26:03;;;;;;;39.83;26.88;;;;;;;;;;5010456;28;20080;-65
2024/01/05 05:28:29;;;;;;;38.05;26.77;;;;;;;;;;4994530;28;20018;-65
2024/01/05 05:30:56;;;;;;;43.58;28.98;;;;;;;;;;4994746;28;20061;-66
2024/01/05 05:33:22;;;;;;;38.20;27.80;;;;;;;;;;4994976;28;20027;-66
2024/01/05 05:35:48;;;;;;;41.33;27.20;;;;;;;;;;4995322;28;20121;-67
2024/01/05 05:38:14;;;;;;;38.28;27.13;;;;;;;;;;5008515;28;20105;-67
2024/01/05 05:40:40;;;;;;;34.90;25.20;;;;;;;;;;4994378;28;20065;-67
2024/01/05 05:43:06;;;;;;;41.92;28.58;;;;;;;;;;4995348;28;20064;-68
2024/01/05 05:45:32;;;;;;;35.35;23.50;;;;;;;;;;4994444;28;20098;-65
2024/01/05 05:47:59;;;;;;;34.10;25.10;;;;;;;;;;4996757;28;20400;-65
2024/01/05 05:50:25;;;;;;;34.80;24.15;;;;;;;;;;4995253;28;20045;-66
2024/01/05 05:52:51;;;;;;;35.28;24.13;;;;;;;;;;4994699;28;20022;-65
2024/01/05 05:55:18;;;;;;;34.85;24.52;;;;;;;;;;4994521;28;20027;-66
2024/01/05 05:57:44;;;;;;;42.67;24.13;;;;;;;;;;4994377;28;20545;-66
2024/01/05 06:00:11;;;;;;;33.95;20.90;;;;;;;;;;4997024;28;20080;-65
2024/01/05 06:02:40;;;;;;;30.05;22.00;;;;;;;;;;4994230;28;20072;-66
2024/01/05 06:05:06;;;;;;;33.47;22.83;;;;;;;;;;4999460;28;20023;-66
2024/01/05 06:07:32;;;;;;;30.90;20.38;;;;;;;;;;4994217;28;20447;-66
2024/01/05 06:09:59;;;;;;;29.95;20.77;;;;;;;;;;5007612;28;20022;-66
2024/01/05 06:12:25;;;;;;;30.85;21.27;;;;;;;;;;4994984;28;20200;-66
2024/01/05 06:14:51;;;;;;;28.27;19.88;;;;;;;;;;4994118;28;20030;-66
2024/01/05 06:17:18;;;;;;;30.05;20.27;;;;;;;;;;4994389;28;20030;-64
2024/01/05 06:19:44;;;;;;;41.92;22.77;;;;;;;;;;4994065;28;20022;-66
2024/01/05 06:22:13;;;;;;;38.25;20.55;;;;;;;;;;4997194;28;20032;-67
2024/01/05 06:24:39;;;;;;;39.78;20.73;;;;;;;;;;4998349;28;20038;-66
2024/01/05 06:27:05;;;;;;;37.17;23.15;;;;;;;;;;5002794;28;20455;-68
2024/01/05 06:29:31;;;;;;;31.48;21.20;;;;;;;;;;4994048;28;20027;-68
2024/01/05 06:31:57;;;;;;;35.88;21.35;;;;;;;;;;4995958;28;20022;-69
2024/01/05 06:34:23;;;;;;;38.08;23.52;;;;;;;;;;4995331;28;20072;-68
2024/01/05 06:36:49;;;;;;;44.55;22.65;;;;;;;;;;4994102;28;20019;-67
2024/01/05 06:39:15;;;;;;;35.42;22.38;;;;;;;;;;4993843;28;20435;-65
2024/01/05 06:41:41;;;;;;;42.28;24.17;;;;;;;;;;4997686;28;20026;-67
2024/01/05 06:44:07;;;;;;;43.38;23.02;;;;;;;;;;4999992;28;20028;-66
2024/01/05 06:46:33;;;;;;;45.03;22.30;;;;;;;;;;5010560;28;20101;-66
2024/01/05 06:49:00;;;;;;;58.35;21.65;;;;;;;;;;4997850;28;20034;-68
2024/01/05 06:51:29;;;;;;;45.28;22.88;;;;;;;;;;4997503;28;20033;-67
2024/01/05 06:53:57;;;;;;;39.78;24.73;;;;;;;;;;4999580;28;20089;-67
2024/01/05 06:56:23;;;;;;;49.08;25.33;;;;;;;;;;4998768;28;20022;-67
2024/01/05 06:58:49;;;;;;;40.67;25.88;;;;;;;;;;4997416;28;20034;-67
2024/01/05 07:01:17;;;;;;;38.40;24.15;;;;;;;;;;4997332;28;20104;-68
2024/01/05 07:03:43;;;;;;;39.83;23.92;;;;;;;;;;4997593;28;20025;-68
2024/01/05 07:06:11;;;;;;;41.50;23.20;;;;;;;;;;5000571;28;20030;-68
2024/01/05 07:08:37;;;;;;;42.15;22.85;;;;;;;;;;4997840;28;20193;-67
2024/01/05 07:11:03;;;;;;;32.25;20.35;;;;;;;;;;4997799;28;20034;-69
2024/01/05 07:13:29;;;;;;;51.50;24.40;;;;;;;;;;4997981;28;20029;-69
2024/01/05 07:15:55;;;;;;;13.77;8.90;;;;;;;;;;5012623;28;20041;-66
2024/01/05 07:18:21;;;;;;;15.98;8.52;;;;;;;;;;5013638;28;20402;-66
2024/01/05 07:20:47;;;;;;;13.35;7.40;;;;;;;;;;5013453;28;20149;-67
2024/01/05 07:23:13;;;;;;;26.85;15.10;;;;;;;;;;5013978;28;20033;-68
2024/01/05 07:25:39;;;;;;;33.72;16.45;;;;;;;;;;5014038;28;20041;-69
2024/01/05 07:28:05;;;;;;;40.40;15.13;;;;;;;;;;5013260;28;20022;-68
2024/01/05 07:30:31;;;;;;;39.08;15.73;;;;;;;;;;5014236;28;20083;-68
2024/01/05 07:32:57;;;;;;;27.90;13.35;;;;;;;;;;5014350;28;20124;-68
2024/01/05 07:35:23;;;;;;;27.00;13.30;;;;;;;;;;5014143;28;20026;-68
2024/01/05 07:37:49;;;;;;;24.33;13.02;;;;;;;;;;5014103;28;20108;-68
2024/01/05 07:40:15;;;;;;;20.70;11.45;;;;;;;;;;5013794;28;20033;-69
2024/01/05 07:42:41;;;;;;;27.17;12.73;;;;;;;;;;5013346;28;20040;-67
2024/01/05 07:45:08;;;;;;;18.92;11.75;;;;;;;;;;5013210;28;20547;-68
2024/01/05 07:47:34;;;;;;;21.17;11.82;;;;;;;;;;5013364;28;20022;-68
2024/01/05 07:50:00;;;;;;;26.45;11.80;;;;;;;;;;5013063;28;20026;-68
2024/01/05 07:52:27;;;;;;;22.98;11.20;;;;;;;;;;5012244;28;20502;-68
2024/01/05 07:54:53;;;;;;;18.20;11.15;;;;;;;;;;5012998;28;20029;-67
2024/01/05 07:57:19;;;;;;;17.77;10.32;;;;;;;;;;5014210;28;20065;-67
2024/01/05 07:59:45;;;;;;;19.92;10.80;;;;;;;;;;5013844;28;20395;-67
2024/01/05 08:02:11;;;;;;;18.60;10.45;;;;;;;;;;5014027;28;20038;-67
2024/01/05 08:04:37;;;;;;;19.98;10.95;;;;;;;;;;5013701;28;20036;-68
2024/01/05 08:07:03;;;;;;;15.75;9.55;;;;;;;;;;5013536;28;20018;-67
2024/01/05 08:09:29;;;;;;;17.45;9.93;;;;;;;;;;5013742;28;20061;-67
2024/01/05 08:11:55;;;;;;;16.23;10.00;;;;;;;;;;5013918;28;20336;-67
2024/01/05 08:14:21;;;;;;;15.95;8.57;;;;;;;;;;5013856;28;20033;-68
2024/01/05 08:16:47;;;;;;;17.33;9.43;;;;;;;;;;5013615;28;20034;-67
2024/01/05 08:19:14;;;;;;;16.38;9.02;;;;;;;;;;5013575;28;20075;-67
2024/01/05 08:21:40;;;;;;;14.75;8.48;;;;;;;;;;5013121;28;20037;-68
2024/01/05 08:24:06;;;;;;;15.75;8.68;;;;;;;;;;5013670;28;20030;-68
2024/01/05 08:26:32;;;;;;;15.82;8.05;;;;;;;;;;5013585;28;20022;-69
2024/01/05 08:28:58;;;;;;;12.02;7.47;;;;;;;;;;5013343;28;20101;-69
2024/01/05 08:31:24;;;;;;;14.98;8.40;;;;;;;;;;5013258;28;20105;-68
2024/01/05 08:33:50;;;;;;;14.70;8.30;;;;;;;;;;5013398;28;20029;-67
2024/01/05 08:36:16;;;;;;;13.18;7.75;;;;;;;;;;5013431;28;20030;-68
2024/01/05 08:38:44;;;;;;;16.88;8.57;;;;;;;;;;5013679;28;20025;-67
2024/01/05 08:41:11;;;;;;;13.07;8.02;;;;;;;;;;5013431;28;20026;-67
2024/01/05 08:43:38;;;;;;;15.52;7.55;;;;;;;;;;5014763;28;20108;-68
2024/01/05 08:46:04;;;;;;;11.45;6.95;;;;;;;;;;5016237;28;20083;-67
2024/01/05 08:48:30;;;;;;;11.52;6.68;;;;;;;;;;5016775;28;20033;-68
2024/01/05 08:50:56;;;;;;;10.50;6.70;;;;;;;;;;5014692;28;20025;-68
2024/01/05 08:53:22;;;;;;;12.20;7.18;;;;;;;;;;5013041;28;20539;-67
2024/01/05 08:55:48;;;;;;;9.73;6.43;;;;;;;;;;5012998;28;20026;-68
2024/01/05 08:58:16;;;;;;;12.30;6.68;;;;;;;;;;5013127;28;20026;-68
2024/01/05 09:00:41;;;;;;;10.45;6.00;;;;;;;;;;5012701;28;20030;-67
2024/01/05 09:03:08;;;;;;;10.25;5.75;;;;;;;;;;5011924;28;20026;-68
2024/01/05 09:05:34;;;;;;;12.38;6.53;;;;;;;;;;5012508;28;20033;-68
2024/01/05 09:08:00;;;;;;;13.15;6.78;;;;;;;;;;5012725;28;20072;-67
2024/01/05 09:10:26;;;;;;;11.18;6.10;;;;;;;;;;5012802;28;20168;-68
2024/01/05 09:12:52;;;;;;;6.85;4.10;;;;;;;;;;5012631;28;20049;-68
2024/01/05 09:15:20;;;;;;;10.73;5.88;;;;;;;;;;5012358;28;20030;-67
2024/01/05 09:17:46;;;;;;;9.57;6.15;;;;;;;;;;5012382;28;20030;-67
2024/01/05 09:20:13;;;;;;;8.57;5.60;;;;;;;;;;5012221;28;20030;-68
2024/01/05 09:22:39;;;;;;;9.85;5.05;;;;;;;;;;5012401;28;20407;-68
2024/01/05 09:25:06;;;;;;;7.97;5.18;;;;;;;;;;5012335;28;20030;-68
2024/01/05 09:27:32;;;;;;;8.90;5.13;;;;;;;;;;5012396;28;20040;-69
2024/01/05 09:29:58;;;;;;;10.30;5.03;;;;;;;;;;5012013;28;20483;-67
2024/01/05 09:32:24;;;;;;;6.78;4.47;;;;;;;;;;5012113;28;20031;-69
2024/01/05 09:34:50;;;;;;;7.32;4.85;;;;;;;;;;5012031;28;20026;-68
2024/01/05 09:37:16;;;;;;;7.43;4.75;;;;;;;;;;5012170;28;20032;-68
2024/01/05 09:39:42;;;;;;;6.63;4.60;;;;;;;;;;5011946;28;20026;-69
2024/01/05 09:42:09;;;;;;;9.45;5.03;;;;;;;;;;5012065;28;20036;-68
2024/01/05 09:44:36;;;;;;;8.93;4.60;;;;;;;;;;5011896;28;20511;-68
2024/01/05 09:47:02;;;;;;;9.13;5.57;;;;;;;;;;5011799;28;20402;-67
2024/01/05 09:49:30;;;;;;;16.75;8.18;;;;;;;;;;5011859;28;20470;-69
2024/01/05 09:51:57;;;;;;;17.73;7.25;;;;;;;;;;5011788;28;20022;-67
2024/01/05 09:54:23;;;;;;;17.48;7.35;;;;;;;;;;5011754;28;20468;-67
2024/01/05 09:56:49;;;;;;;16.83;6.82;;;;;;;;;;5011586;28;20402;-67
2024/01/05 09:59:17;;;;;;;16.52;7.57;;;;;;;;;;5010435;28;20157;-67
2024/01/05 10:01:43;;;;;;;12.88;5.32;;;;;;;;;;5011508;28;20083;-63
2024/01/05 10:04:09;;;;;;;9.82;5.07;;;;;;;;;;5011750;28;20026;-64
2024/01/05 10:06:35;;;;;;;9.15;5.07;;;;;;;;;;5011586;28;20048;-63
2024/01/05 10:09:01;;;;;;;7.18;5.07;;;;;;;;;;5011758;28;20025;-63
2024/01/05 10:11:31;;;;;;;6.97;4.30;;;;;;;;;;5011427;28;20018;-63
2024/01/05 10:14:01;;;;;;;5.55;3.88;;;;;;;;;;5011541;28;20028;-64
2024/01/05 10:16:34;;;;;;;7.35;4.53;;;;;;;;;;5011167;28;20089;-63
2024/01/05 10:19:16;;;;;;;6.10;3.65;;;;;;;;;;5011786;28;20030;-64
2024/01/05 10:21:45;;;;;;;6.22;3.50;;;;;;;;;;5011467;28;20068;-68
2024/01/05 10:24:15;;;;;;;12.45;6.63;;;;;;;;;;5011511;28;20098;-69
2024/01/05 10:26:41;;;;;;;10.60;6.13;;;;;;;;;;5011444;28;20399;-68
2024/01/05 10:29:15;;;;;;;8.88;5.22;;;;;;;;;;5011453;28;20111;-69
2024/01/05 10:31:41;;;;;;;11.75;5.28;;;;;;;;;;5011490;28;20053;-70
2024/01/05 10:34:08;;;;;;;9.60;5.22;;;;;;;;;;5011560;28;20476;-69
2024/01/05 10:36:34;;;;;;;15.20;6.13;;;;;;;;;;5011548;28;20038;-69
2024/01/05 10:39:03;;;;;;;11.13;5.50;;;;;;;;;;5011433;28;20034;-67
2024/01/05 10:41:29;;;;;;;16.83;5.55;;;;;;;;;;5011498;28;20041;-68
2024/01/05 10:43:56;;;;;;;12.23;5.13;;;;;;;;;;5011370;28;20700;-68
2024/01/05 10:46:24;;;;;;;11.52;4.82;;;;;;;;;;5011524;28;20034;-68
2024/01/05 10:48:50;;;;;;;13.00;4.78;;;;;;;;;;5011367;28;20026;-71
2024/01/05 10:51:18;;;;;;;10.95;5.25;;;;;;;;;;5011015;28;20551;-69
2024/01/05 10:53:46;;;;;;;10.00;4.55;;;;;;;;;;5011057;28;20101;-69
2024/01/05 10:56:12;;;;;;;7.75;4.18;;;;;;;;;;5011188;28;20045;-68
2024/01/05 10:58:38;;;;;;;12.27;5.55;;;;;;;;;;5011139;28;20114;-68
2024/01/05 11:01:09;;;;;;;10.32;4.93;;;;;;;;;;5011169;28;20026;-69
2024/01/05 11:03:43;;;;;;;7.32;4.10;;;;;;;;;;5009536;28;20026;-70
2024/01/05 11:06:10;;;;;;;7.78;4.50;;;;;;;;;;5009555;28;20028;-68
2024/01/05 11:09:14;;;;;;;14.60;4.88;;;;;;;;;;5008716;28;20018;-68
2024/01/05 11:11:57;;;;;;;11.82;4.75;;;;;;;;;;4988380;28;20027;-70
2024/01/05 11:14:26;;;;;;;10.07;3.95;;;;;;;;;;4988528;28;20114;-70
2024/01/05 11:17:10;;;;;;;11.43;3.85;;;;;;;;;;5002178;28;20411;-70
2024/01/05 11:19:36;;;;;;;6.63;3.60;;;;;;;;;;5011086;28;20033;-70
2024/01/05 11:22:03;;;;;;;8.95;4.72;;;;;;;;;;5009902;28;20022;-69
2024/01/05 11:24:29;;;;;;;11.98;4.13;;;;;;;;;;5011006;28;20081;-71
2024/01/05 11:26:55;;;;;;;13.35;4.20;;;;;;;;;;5011726;28;20028;-70
2024/01/05 11:29:40;;;;;;;6.68;4.10;;;;;;;;;;5014239;28;20032;-69
2024/01/05 11:32:06;;;;;;;11.32;3.45;;;;;;;;;;5014648;28;20030;-69
2024/01/05 11:34:35;;;;;;;9.77;3.50;;;;;;;;;;5014399;28;20103;-69
2024/01/05 11:37:02;;;;;;;6.53;3.10;;;;;;;;;;5014359;28;20072;-70
2024/01/05 11:39:46;;;;;;;6.80;3.15;;;;;;;;;;5014018;28;20472;-69
2024/01/05 11:42:41;;;;;;;8.55;3.47;;;;;;;;;;5014341;28;20072;-69
2024/01/05 11:45:11;;;;;;;9.55;3.65;;;;;;;;;;5013338;28;20408;-70
2024/01/05 11:47:37;;;;;;;5.88;2.60;;;;;;;;;;5014189;28;20059;-69
2024/01/05 11:50:21;;;;;;;5.22;2.95;;;;;;;;;;5014017;28;20022;-69
2024/01/05 11:52:47;;;;;;;9.32;3.75;;;;;;;;;;5014043;28;20080;-69
2024/01/05 11:55:13;;;;;;;6.10;2.70;;;;;;;;;;5013892;28;20426;-69
2024/01/05 11:57:39;;;;;;;7.32;2.58;;;;;;;;;;5013980;28;20030;-70
2024/01/05 12:00:06;;;;;;;8.82;3.03;;;;;;;;;;5013903;28;20376;-69
2024/01/05 12:02:32;;;;;;;4.47;2.90;;;;;;;;;;5012595;28;20033;-70
2024/01/05 12:04:58;;;;;;;5.22;2.47;;;;;;;;;;5013889;28;20109;-69
2024/01/05 12:07:29;;;;;;;5.20;2.00;;;;;;;;;;5013972;28;20044;-70
2024/01/05 12:09:55;;;;;;;3.63;2.22;;;;;;;;;;5013624;28;20022;-69
2024/01/05 12:12:21;;;;;;;6.57;2.45;;;;;;;;;;5012544;28;20022;-69
2024/01/05 12:14:47;;;;;;;5.18;2.60;;;;;;;;;;5013421;28;20026;-69
2024/01/05 12:17:14;;;;;;;4.68;2.20;;;;;;;;;;5013576;28;20033;-69
2024/01/05 12:19:40;;;;;;;6.50;2.05;;;;;;;;;;5013580;28;20033;-69
2024/01/05 12:22:09;;;;;;;2.55;1.98;;;;;;;;;;5013713;28;20025;-69
2024/01/05 12:24:35;;;;;;;4.95;2.05;;;;;;;;;;5013474;28;20180;-69
2024/01/05 12:27:01;;;;;;;4.18;2.33;;;;;;;;;;5013674;28;20022;-69
2024/01/05 12:29:27;;;;;;;4.22;1.95;;;;;;;;;;5011788;28;20503;-69
2024/01/05 12:31:54;;;;;;;3.75;2.08;;;;;;;;;;5012306;28;20088;-68
2024/01/05 12:34:20;;;;;;;6.30;2.38;;;;;;;;;;5014002;28;20453;-69
2024/01/05 12:36:46;;;;;;;4.15;1.83;;;;;;;;;;5015574;28;20034;-69
2024/01/05 12:39:12;;;;;;;3.83;1.60;;;;;;;;;;5013631;28;20495;-70
2024/01/05 12:41:45;;;;;;;5.47;1.95;;;;;;;;;;5014082;28;20388;-70
2024/01/05 12:44:11;;;;;;;4.38;2.22;;;;;;;;;;5013413;28;20026;-68
2024/01/05 12:46:41;;;;;;;15.23;2.92;;;;;;;;;;5011804;28;20108;-71
2024/01/05 12:49:19;;;;;;;10.02;2.83;;;;;;;;;;5013196;28;20488;-70
2024/01/05 12:51:48;;;;;;;6.47;2.78;;;;;;;;;;5013201;28;20526;-69
2024/01/05 12:54:14;;;;;;;8.45;2.50;;;;;;;;;;5012947;28;20033;-68
2024/01/05 12:56:50;;;;;;;10.00;2.63;;;;;;;;;;5012521;28;20033;-69
2024/01/05 12:59:23;;;;;;;3.90;1.75;;;;;;;;;;5012918;28;20076;-67
2024/01/05 13:02:02;;;;;;;4.53;2.00;;;;;;;;;;5012618;28;20391;-69
2024/01/05 13:04:33;;;;;;;6.30;1.77;;;;;;;;;;5011602;28;20109;-68
2024/01/05 13:07:00;;;;;;;4.63;1.92;;;;;;;;;;5012640;28;20022;-69
2024/01/05 13:09:25;;;;;;;3.30;1.77;;;;;;;;;;5012729;28;20401;-70
2024/01/05 13:11:52;;;;;;;4.50;1.52;;;;;;;;;;5011033;28;20097;-69
2024/01/05 13:14:19;;;;;;;3.70;2.15;;;;;;;;;;5012641;28;20026;-69
2024/01/05 13:16:45;;;;;;;4.55;2.10;;;;;;;;;;5012485;28;20120;-69
2024/01/05 13:19:11;;;;;;;4.55;1.80;;;;;;;;;;5012571;28;20033;-68
2024/01/05 13:21:38;;;;;;;8.77;2.35;;;;;;;;;;5012225;28;20026;-69
2024/01/05 13:24:04;;;;;;;3.00;1.67;;;;;;;;;;5013149;28;20026;-68
2024/01/05 13:26:30;;;;;;;11.25;2.40;;;;;;;;;;5012605;28;20422;-68
2024/01/05 13:28:56;;;;;;;7.03;3.55;;;;;;;;;;5012529;28;20014;-69
2024/01/05 13:31:22;;;;;;;11.05;3.13;;;;;;;;;;5012294;28;20022;-69
2024/01/05 13:33:48;;;;;;;14.35;3.67;;;;;;;;;;5012612;28;20072;-69
2024/01/05 13:36:14;;;;;;;12.18;2.90;;;;;;;;;;5012678;28;20433;-69
2024/01/05 13:38:41;;;;;;;8.20;2.88;;;;;;;;;;5012565;28;20033;-71
2024/01/05 13:41:07;;;;;;;8.52;3.17;;;;;;;;;;5012954;28;20030;-71
2024/01/05 13:43:34;;;;;;;7.10;3.05;;;;;;;;;;5013444;28;20044;-70
2024/01/05 13:46:00;;;;;;;11.70;3.40;;;;;;;;;;5013373;28;20030;-70
2024/01/05 13:48:26;;;;;;;7.25;2.88;;;;;;;;;;5013966;28;20391;-70
2024/01/05 13:50:53;;;;;;;6.22;2.70;;;;;;;;;;5012244;28;20026;-69
2024/01/05 13:53:19;;;;;;;6.78;2.55;;;;;;;;;;5013057;28;20458;-70
2024/01/05 13:55:45;;;;;;;6.63;2.45;;;;;;;;;;5011022;28;20030;-70
2024/01/05 13:58:11;;;;;;;5.45;2.47;;;;;;;;;;5012680;28;20080;-70
2024/01/05 14:00:38;;;;;;;4.15;2.25;;;;;;;;;;5013055;28;20034;-70
2024/01/05 14:03:04;;;;;;;5.35;2.22;;;;;;;;;;5012745;28;20581;-70
2024/01/05 14:05:30;;;;;;;5.10;2.47;;;;;;;;;;5011329;28;20030;-71
2024/01/05 14:07:56;;;;;;;3.35;1.95;;;;;;;;;;5012308;28;20044;-71
2024/01/05 14:10:22;;;;;;;5.72;1.92;;;;;;;;;;5011013;28;20438;-70
2024/01/05 14:12:48;;;;;;;4.72;1.92;;;;;;;;;;5012258;28;20022;-70
2024/01/05 14:15:15;;;;;;;3.17;1.63;;;;;;;;;;5009596;28;20077;-70
2024/01/05 14:17:41;;;;;;;8.00;2.55;;;;;;;;;;5011076;28;20160;-70
2024/01/05 14:20:08;;;;;;;6.80;2.90;;;;;;;;;;5011328;28;20026;-70
2024/01/05 14:22:34;;;;;;;15.00;2.83;;;;;;;;;;5010357;28;20399;-69